F/V Oceanis — FHLH — position and weather

sailwx.info

Track history (hours):
 
Tides and Currents Weather Stations Pressure Air Temp Water Temp Dewpoint Dewpoint Depression Visibility Wind Speed Wind Dir Waves Ship Positions

F/V Oceanis

Last reported at 2014-Dec-22 00:14 UTC. Time now 2014-Dec-22 04:12 UTC.
Position N 46°30' W 001°47'.

Length 16 m.

Type: Other ship. MMSI: 228385000.

Date/timePositionNaut miles runAvg speedWind from/ knotsBaromVisibWave heightAir tempDewpointWater temp
2014-Dec-22 00:14N 46°30' W 001°47'0 0.1
2014-Dec-21 23:33N 46°30' W 001°47'2 1.9
2014-Dec-21 22:33N 46°28' W 001°48'4 4.4
2014-Dec-21 21:33N 46°25' W 001°53'11 0.4
2014-Dec-20 16:17N 46°19' W 002°06'6 8.0
2014-Dec-20 15:33N 46°22' W 001°59'8 7.8
2014-Dec-20 14:33N 46°27' W 001°50'3 3.3
2014-Dec-20 13:33N 46°30' W 001°47'0 0.0
2014-Dec-20 12:33N 46°30' W 001°47'0 0.0
2014-Dec-20 11:33N 46°30' W 001°47'5 5.1
2014-Dec-20 10:33N 46°27' W 001°53'8 8.1
2014-Dec-20 09:33N 46°22' W 002°03'  
2014-Dec-17 17:08N 46°16' W 001°57'4 6.4
2014-Dec-17 16:33N 46°18' W 001°53'7 7.3
2014-Dec-17 15:34N 46°25' W 001°50'5 4.8
2014-Dec-17 14:33N 46°30' W 001°47'0 0.0
2014-Dec-17 13:34N 46°30' W 001°47'0 0.1
2014-Dec-17 12:34N 46°30' W 001°47'0 0.0
2014-Dec-17 11:33N 46°30' W 001°47'0 0.0
2014-Dec-16 22:33N 46°30' W 001°47'0 0.0
2014-Dec-16 21:33N 46°30' W 001°47'0 0.0
2014-Dec-16 20:33N 46°30' W 001°47'0 0.0
2014-Dec-16 19:33N 46°30' W 001°47'0 0.0
2014-Dec-16 18:33N 46°30' W 001°47'3 3.0
2014-Dec-16 17:33N 46°27' W 001°48'0 0.2
2014-Dec-16 16:33N 46°27' W 001°49'0 0.3
2014-Dec-16 15:33N 46°27' W 001°49'7 6.7
2014-Dec-16 14:32N 46°20' W 001°53'  
Track history (hours):
 
Tides and Currents Weather Stations Pressure Air Temp Water Temp Dewpoint Dewpoint Depression Visibility Wind Speed Wind Dir Waves Ship Positions

F/V Oceanis

Last reported at 2014-Dec-22 00:14 UTC. Time now 2014-Dec-22 04:12 UTC.
Position N 46°30' W 001°47'.

Length 16 m.

Type: Other ship. MMSI: 228385000.

Date/timePositionNaut miles runAvg speedWind from/ knotsBaromVisibWave heightAir tempDewpointWater temp
2014-Dec-22 00:14N 46°30' W 001°47'0 0.1
2014-Dec-21 23:33N 46°30' W 001°47'2 1.9
2014-Dec-21 22:33N 46°28' W 001°48'4 4.4
2014-Dec-21 21:33N 46°25' W 001°53'11 0.4
2014-Dec-20 16:17N 46°19' W 002°06'6 8.0
2014-Dec-20 15:33N 46°22' W 001°59'8 7.8
2014-Dec-20 14:33N 46°27' W 001°50'3 3.3
2014-Dec-20 13:33N 46°30' W 001°47'0 0.0
2014-Dec-20 12:33N 46°30' W 001°47'0 0.0
2014-Dec-20 11:33N 46°30' W 001°47'5 5.1
2014-Dec-20 10:33N 46°27' W 001°53'8 8.1
2014-Dec-20 09:33N 46°22' W 002°03'  
2014-Dec-17 17:08N 46°16' W 001°57'4 6.4
2014-Dec-17 16:33N 46°18' W 001°53'7 7.3
2014-Dec-17 15:34N 46°25' W 001°50'5 4.8
2014-Dec-17 14:33N 46°30' W 001°47'0 0.0
2014-Dec-17 13:34N 46°30' W 001°47'0 0.1
2014-Dec-17 12:34N 46°30' W 001°47'0 0.0
2014-Dec-17 11:33N 46°30' W 001°47'0 0.0
2014-Dec-16 22:33N 46°30' W 001°47'0 0.0
2014-Dec-16 21:33N 46°30' W 001°47'0 0.0
2014-Dec-16 20:33N 46°30' W 001°47'0 0.0
2014-Dec-16 19:33N 46°30' W 001°47'0 0.0
2014-Dec-16 18:33N 46°30' W 001°47'3 3.0
2014-Dec-16 17:33N 46°27' W 001°48'0 0.2
2014-Dec-16 16:33N 46°27' W 001°49'0 0.3
2014-Dec-16 15:33N 46°27' W 001°49'7 6.7
2014-Dec-16 14:32N 46°20' W 001°53'  

Dump ship's entire track history